sensor_id;sensor_type;location;lat;lon;timestamp;temperature;humidity
15143;DHT22;7672;50.834;6.286;2022-10-16T00:01:36;16.00;99.90
15143;DHT22;7672;50.834;6.286;2022-10-16T00:04:04;15.90;99.90
15143;DHT22;7672;50.834;6.286;2022-10-16T00:06:31;15.90;99.90
15143;DHT22;7672;50.834;6.286;2022-10-16T00:08:58;15.90;99.90
15143;DHT22;7672;50.834;6.286;2022-10-16T00:11:28;15.90;99.90
15143;DHT22;7672;50.834;6.286;2022-10-16T00:14:08;15.90;99.90
15143;DHT22;7672;50.834;6.286;2022-10-16T00:16:37;16.20;99.90
15143;DHT22;7672;50.834;6.286;2022-10-16T00:19:04;15.90;99.90
15143;DHT22;7672;50.834;6.286;2022-10-16T00:21:32;15.90;99.90
15143;DHT22;7672;50.834;6.286;2022-10-16T00:24:03;15.90;99.90
15143;DHT22;7672;50.834;6.286;2022-10-16T00:26:33;15.80;99.90
15143;DHT22;7672;50.834;6.286;2022-10-16T00:29:03;15.90;99.90
15143;DHT22;7672;50.834;6.286;2022-10-16T00:31:31;15.80;99.90
15143;DHT22;7672;50.834;6.286;2022-10-16T00:33:58;15.80;99.90
15143;DHT22;7672;50.834;6.286;2022-10-16T00:36:26;15.80;99.90
15143;DHT22;7672;50.834;6.286;2022-10-16T00:38:54;15.80;99.90
15143;DHT22;7672;50.834;6.286;2022-10-16T00:41:25;15.80;99.90
15143;DHT22;7672;50.834;6.286;2022-10-16T00:43:54;15.80;99.90
15143;DHT22;7672;50.834;6.286;2022-10-16T00:46:45;15.70;99.90
15143;DHT22;7672;50.834;6.286;2022-10-16T00:49:16;15.70;99.90
15143;DHT22;7672;50.834;6.286;2022-10-16T00:51:48;15.60;99.90
15143;DHT22;7672;50.834;6.286;2022-10-16T00:54:22;15.60;99.90
15143;DHT22;7672;50.834;6.286;2022-10-16T00:56:52;15.60;99.90
15143;DHT22;7672;50.834;6.286;2022-10-16T00:59:22;15.50;99.90
15143;DHT22;7672;50.834;6.286;2022-10-16T01:01:53;15.90;99.90
15143;DHT22;7672;50.834;6.286;2022-10-16T01:04:22;15.50;99.90
15143;DHT22;7672;50.834;6.286;2022-10-16T01:07:03;15.50;99.90
15143;DHT22;7672;50.834;6.286;2022-10-16T01:18:35;15.40;99.90
15143;DHT22;7672;50.834;6.286;2022-10-16T01:21:11;15.30;99.90
15143;DHT22;7672;50.834;6.286;2022-10-16T01:35:09;15.20;99.90
15143;DHT22;7672;50.834;6.286;2022-10-16T01:37:55;15.20;99.90
15143;DHT22;7672;50.834;6.286;2022-10-16T01:40:31;15.10;99.90
15143;DHT22;7672;50.834;6.286;2022-10-16T01:43:05;15.10;99.90
15143;DHT22;7672;50.834;6.286;2022-10-16T01:45:36;15.10;99.90
15143;DHT22;7672;50.834;6.286;2022-10-16T01:48:04;15.10;99.90
15143;DHT22;7672;50.834;6.286;2022-10-16T01:50:38;15.10;99.90
15143;DHT22;7672;50.834;6.286;2022-10-16T01:53:10;15.10;99.90
15143;DHT22;7672;50.834;6.286;2022-10-16T01:55:43;15.10;99.90
15143;DHT22;7672;50.834;6.286;2022-10-16T01:58:15;15.10;99.90
15143;DHT22;7672;50.834;6.286;2022-10-16T02:00:44;15.20;99.90
15143;DHT22;7672;50.834;6.286;2022-10-16T02:03:16;15.10;99.90
15143;DHT22;7672;50.834;6.286;2022-10-16T02:05:47;15.20;99.90
15143;DHT22;7672;50.834;6.286;2022-10-16T02:08:18;15.20;99.90
15143;DHT22;7672;50.834;6.286;2022-10-16T02:10:47;15.20;99.90
15143;DHT22;7672;50.834;6.286;2022-10-16T02:13:18;15.20;99.90
15143;DHT22;7672;50.834;6.286;2022-10-16T02:15:50;15.20;99.90
15143;DHT22;7672;50.834;6.286;2022-10-16T02:18:16;15.20;99.90
15143;DHT22;7672;50.834;6.286;2022-10-16T02:20:51;15.30;99.90
15143;DHT22;7672;50.834;6.286;2022-10-16T02:23:38;15.20;99.90
15143;DHT22;7672;50.834;6.286;2022-10-16T02:26:52;15.30;99.90
15143;DHT22;7672;50.834;6.286;2022-10-16T02:29:20;15.30;99.90
15143;DHT22;7672;50.834;6.286;2022-10-16T02:31:55;15.30;99.90
15143;DHT22;7672;50.834;6.286;2022-10-16T02:34:26;15.40;99.90
15143;DHT22;7672;50.834;6.286;2022-10-16T02:36:56;15.40;99.90
15143;DHT22;7672;50.834;6.286;2022-10-16T02:39:25;15.40;99.90
15143;DHT22;7672;50.834;6.286;2022-10-16T02:41:54;15.40;99.90
15143;DHT22;7672;50.834;6.286;2022-10-16T02:44:21;15.40;99.90
15143;DHT22;7672;50.834;6.286;2022-10-16T02:46:47;15.40;99.90
15143;DHT22;7672;50.834;6.286;2022-10-16T02:49:14;15.40;99.90
15143;DHT22;7672;50.834;6.286;2022-10-16T02:51:41;15.40;99.90
15143;DHT22;7672;50.834;6.286;2022-10-16T02:54:08;15.40;99.90
15143;DHT22;7672;50.834;6.286;2022-10-16T02:56:35;15.50;99.90
15143;DHT22;7672;50.834;6.286;2022-10-16T02:59:02;15.40;99.90
15143;DHT22;7672;50.834;6.286;2022-10-16T03:01:28;15.40;99.90
15143;DHT22;7672;50.834;6.286;2022-10-16T03:03:55;15.40;99.90
15143;DHT22;7672;50.834;6.286;2022-10-16T03:06:22;15.40;99.90
15143;DHT22;7672;50.834;6.286;2022-10-16T03:08:49;15.30;99.90
15143;DHT22;7672;50.834;6.286;2022-10-16T03:11:16;15.40;99.90
15143;DHT22;7672;50.834;6.286;2022-10-16T03:13:43;15.40;99.90
15143;DHT22;7672;50.834;6.286;2022-10-16T03:16:10;15.40;99.90
15143;DHT22;7672;50.834;6.286;2022-10-16T03:18:37;15.40;99.90
15143;DHT22;7672;50.834;6.286;2022-10-16T03:21:03;15.50;99.90
15143;DHT22;7672;50.834;6.286;2022-10-16T03:23:30;15.50;99.90
15143;DHT22;7672;50.834;6.286;2022-10-16T03:25:57;15.50;99.90
15143;DHT22;7672;50.834;6.286;2022-10-16T03:28:24;15.50;99.90
15143;DHT22;7672;50.834;6.286;2022-10-16T03:30:51;15.50;99.90
15143;DHT22;7672;50.834;6.286;2022-10-16T03:33:17;15.50;99.90
15143;DHT22;7672;50.834;6.286;2022-10-16T03:35:53;15.50;99.90
15143;DHT22;7672;50.834;6.286;2022-10-16T03:38:21;15.50;99.90
15143;DHT22;7672;50.834;6.286;2022-10-16T03:40:48;15.60;99.90
15143;DHT22;7672;50.834;6.286;2022-10-16T03:43:15;15.60;99.90
15143;DHT22;7672;50.834;6.286;2022-10-16T03:45:42;15.60;99.90
15143;DHT22;7672;50.834;6.286;2022-10-16T03:48:09;15.60;99.90
15143;DHT22;7672;50.834;6.286;2022-10-16T03:50:36;15.60;99.90
15143;DHT22;7672;50.834;6.286;2022-10-16T03:53:04;15.70;99.90
15143;DHT22;7672;50.834;6.286;2022-10-16T03:55:30;15.70;99.90
15143;DHT22;7672;50.834;6.286;2022-10-16T03:57:57;15.70;99.90
15143;DHT22;7672;50.834;6.286;2022-10-16T04:00:24;15.70;99.90
15143;DHT22;7672;50.834;6.286;2022-10-16T04:02:51;15.70;99.90
15143;DHT22;7672;50.834;6.286;2022-10-16T04:05:17;15.70;99.90
15143;DHT22;7672;50.834;6.286;2022-10-16T04:07:44;15.70;99.90
15143;DHT22;7672;50.834;6.286;2022-10-16T04:10:11;15.60;99.90
15143;DHT22;7672;50.834;6.286;2022-10-16T04:12:38;15.60;99.90
15143;DHT22;7672;50.834;6.286;2022-10-16T04:15:05;15.60;99.90
15143;DHT22;7672;50.834;6.286;2022-10-16T04:17:32;15.60;99.90
15143;DHT22;7672;50.834;6.286;2022-10-16T04:19:58;15.50;99.90
15143;DHT22;7672;50.834;6.286;2022-10-16T04:22:25;15.50;99.90
15143;DHT22;7672;50.834;6.286;2022-10-16T04:24:53;15.50;99.90
15143;DHT22;7672;50.834;6.286;2022-10-16T04:27:19;15.40;99.90
15143;DHT22;7672;50.834;6.286;2022-10-16T04:29:46;15.40;99.90
15143;DHT22;7672;50.834;6.286;2022-10-16T04:32:13;15.40;99.90
15143;DHT22;7672;50.834;6.286;2022-10-16T04:34:40;15.30;99.90
15143;DHT22;7672;50.834;6.286;2022-10-16T04:37:06;15.30;99.90
15143;DHT22;7672;50.834;6.286;2022-10-16T04:39:33;15.30;99.90
15143;DHT22;7672;50.834;6.286;2022-10-16T04:42:00;15.20;99.90
15143;DHT22;7672;50.834;6.286;2022-10-16T04:44:27;15.20;99.90
15143;DHT22;7672;50.834;6.286;2022-10-16T04:46:54;15.20;99.90
15143;DHT22;7672;50.834;6.286;2022-10-16T04:49:21;15.10;99.90
15143;DHT22;7672;50.834;6.286;2022-10-16T04:51:47;15.10;99.90
15143;DHT22;7672;50.834;6.286;2022-10-16T04:54:14;15.10;99.90
15143;DHT22;7672;50.834;6.286;2022-10-16T04:56:41;15.00;99.90
15143;DHT22;7672;50.834;6.286;2022-10-16T04:59:14;15.00;99.90
15143;DHT22;7672;50.834;6.286;2022-10-16T05:01:41;14.90;99.90
15143;DHT22;7672;50.834;6.286;2022-10-16T05:04:09;14.90;99.90
15143;DHT22;7672;50.834;6.286;2022-10-16T05:06:36;14.90;99.90
15143;DHT22;7672;50.834;6.286;2022-10-16T05:09:05;14.90;99.90
15143;DHT22;7672;50.834;6.286;2022-10-16T05:11:32;14.80;99.90
15143;DHT22;7672;50.834;6.286;2022-10-16T05:14:00;14.80;99.90
15143;DHT22;7672;50.834;6.286;2022-10-16T05:16:27;14.80;99.90
15143;DHT22;7672;50.834;6.286;2022-10-16T05:18:54;14.70;99.90
15143;DHT22;7672;50.834;6.286;2022-10-16T05:21:29;14.70;99.90
15143;DHT22;7672;50.834;6.286;2022-10-16T05:23:56;14.70;99.90
15143;DHT22;7672;50.834;6.286;2022-10-16T05:26:23;14.60;99.90
15143;DHT22;7672;50.834;6.286;2022-10-16T05:28:50;14.60;99.90
15143;DHT22;7672;50.834;6.286;2022-10-16T05:31:17;14.60;99.90
15143;DHT22;7672;50.834;6.286;2022-10-16T05:33:44;14.50;99.90
15143;DHT22;7672;50.834;6.286;2022-10-16T05:36:11;14.50;99.90
15143;DHT22;7672;50.834;6.286;2022-10-16T05:38:38;14.50;99.90
15143;DHT22;7672;50.834;6.286;2022-10-16T05:41:06;14.50;99.90
15143;DHT22;7672;50.834;6.286;2022-10-16T05:43:32;14.50;99.90
15143;DHT22;7672;50.834;6.286;2022-10-16T05:46:04;14.50;99.90
15143;DHT22;7672;50.834;6.286;2022-10-16T05:48:32;14.40;99.90
15143;DHT22;7672;50.834;6.286;2022-10-16T05:51:11;14.50;99.90
15143;DHT22;7672;50.834;6.286;2022-10-16T05:53:40;14.40;99.90
15143;DHT22;7672;50.834;6.286;2022-10-16T05:56:09;14.40;99.90
15143;DHT22;7672;50.834;6.286;2022-10-16T05:58:38;14.40;99.90
15143;DHT22;7672;50.834;6.286;2022-10-16T06:01:12;14.30;99.90
15143;DHT22;7672;50.834;6.286;2022-10-16T06:03:41;14.40;99.90
15143;DHT22;7672;50.834;6.286;2022-10-16T06:06:15;14.40;99.90
15143;DHT22;7672;50.834;6.286;2022-10-16T06:08:45;14.40;99.90
15143;DHT22;7672;50.834;6.286;2022-10-16T06:11:15;14.40;99.90
15143;DHT22;7672;50.834;6.286;2022-10-16T06:13:44;14.40;99.90
15143;DHT22;7672;50.834;6.286;2022-10-16T06:16:12;14.40;99.90
15143;DHT22;7672;50.834;6.286;2022-10-16T06:18:39;14.40;99.90
15143;DHT22;7672;50.834;6.286;2022-10-16T06:21:11;14.40;99.90
15143;DHT22;7672;50.834;6.286;2022-10-16T06:23:43;14.40;99.90
15143;DHT22;7672;50.834;6.286;2022-10-16T06:26:19;14.50;99.90
15143;DHT22;7672;50.834;6.286;2022-10-16T06:28:47;14.50;99.90
15143;DHT22;7672;50.834;6.286;2022-10-16T06:31:15;14.50;99.90
15143;DHT22;7672;50.834;6.286;2022-10-16T06:33:43;14.50;99.90
15143;DHT22;7672;50.834;6.286;2022-10-16T06:36:13;14.50;99.90
15143;DHT22;7672;50.834;6.286;2022-10-16T06:38:42;14.60;99.90
15143;DHT22;7672;50.834;6.286;2022-10-16T06:41:13;14.60;99.90
15143;DHT22;7672;50.834;6.286;2022-10-16T06:43:42;14.60;99.90
15143;DHT22;7672;50.834;6.286;2022-10-16T06:46:10;14.70;99.90
15143;DHT22;7672;50.834;6.286;2022-10-16T06:48:38;14.80;99.90
15143;DHT22;7672;50.834;6.286;2022-10-16T06:51:13;14.90;99.90
15143;DHT22;7672;50.834;6.286;2022-10-16T06:53:49;15.10;99.90
15143;DHT22;7672;50.834;6.286;2022-10-16T06:56:32;15.20;99.90
15143;DHT22;7672;50.834;6.286;2022-10-16T06:59:00;15.40;99.90
15143;DHT22;7672;50.834;6.286;2022-10-16T07:01:28;15.60;99.90
15143;DHT22;7672;50.834;6.286;2022-10-16T07:03:55;15.70;99.90
15143;DHT22;7672;50.834;6.286;2022-10-16T07:06:24;15.80;99.90
15143;DHT22;7672;50.834;6.286;2022-10-16T07:08:52;16.00;99.90
15143;DHT22;7672;50.834;6.286;2022-10-16T07:11:21;16.10;99.90
15143;DHT22;7672;50.834;6.286;2022-10-16T07:13:49;16.30;99.90
15143;DHT22;7672;50.834;6.286;2022-10-16T07:16:26;16.50;99.90
15143;DHT22;7672;50.834;6.286;2022-10-16T07:18:56;16.60;99.90
15143;DHT22;7672;50.834;6.286;2022-10-16T07:21:29;16.70;99.90
15143;DHT22;7672;50.834;6.286;2022-10-16T07:24:02;16.80;99.90
15143;DHT22;7672;50.834;6.286;2022-10-16T07:26:31;17.00;99.90
15143;DHT22;7672;50.834;6.286;2022-10-16T07:29:00;17.20;99.90
15143;DHT22;7672;50.834;6.286;2022-10-16T07:31:27;17.30;99.90
15143;DHT22;7672;50.834;6.286;2022-10-16T07:33:54;17.40;99.90
15143;DHT22;7672;50.834;6.286;2022-10-16T07:36:21;17.60;99.90
15143;DHT22;7672;50.834;6.286;2022-10-16T07:38:48;17.60;99.90
15143;DHT22;7672;50.834;6.286;2022-10-16T07:41:19;17.70;99.90
15143;DHT22;7672;50.834;6.286;2022-10-16T07:43:51;18.00;99.90
15143;DHT22;7672;50.834;6.286;2022-10-16T07:46:20;17.90;99.90
15143;DHT22;7672;50.834;6.286;2022-10-16T07:48:48;18.10;99.90
15143;DHT22;7672;50.834;6.286;2022-10-16T07:51:17;18.40;99.90
15143;DHT22;7672;50.834;6.286;2022-10-16T07:53:46;18.80;99.90
15143;DHT22;7672;50.834;6.286;2022-10-16T07:56:14;19.30;99.90
15143;DHT22;7672;50.834;6.286;2022-10-16T07:58:42;19.90;99.90
15143;DHT22;7672;50.834;6.286;2022-10-16T08:01:12;20.50;99.90
15143;DHT22;7672;50.834;6.286;2022-10-16T08:03:45;21.20;99.90
15143;DHT22;7672;50.834;6.286;2022-10-16T08:06:13;21.80;99.90
15143;DHT22;7672;50.834;6.286;2022-10-16T08:08:40;22.50;99.90
15143;DHT22;7672;50.834;6.286;2022-10-16T08:11:07;23.10;99.90
15143;DHT22;7672;50.834;6.286;2022-10-16T08:13:35;23.70;99.90
15143;DHT22;7672;50.834;6.286;2022-10-16T08:16:02;24.30;99.90
15143;DHT22;7672;50.834;6.286;2022-10-16T08:18:35;24.90;99.90
15143;DHT22;7672;50.834;6.286;2022-10-16T08:21:03;25.50;99.90
15143;DHT22;7672;50.834;6.286;2022-10-16T08:23:31;26.00;99.90
15143;DHT22;7672;50.834;6.286;2022-10-16T08:26:04;26.40;99.90
15143;DHT22;7672;50.834;6.286;2022-10-16T08:28:32;26.80;99.90
15143;DHT22;7672;50.834;6.286;2022-10-16T08:31:26;27.20;99.90
15143;DHT22;7672;50.834;6.286;2022-10-16T08:33:53;27.70;99.90
15143;DHT22;7672;50.834;6.286;2022-10-16T08:36:20;28.00;99.90
15143;DHT22;7672;50.834;6.286;2022-10-16T08:38:48;28.40;99.90
15143;DHT22;7672;50.834;6.286;2022-10-16T08:47:45;29.50;99.90
15143;DHT22;7672;50.834;6.286;2022-10-16T08:50:24;29.90;99.90
15143;DHT22;7672;50.834;6.286;2022-10-16T08:52:57;30.20;99.90
15143;DHT22;7672;50.834;6.286;2022-10-16T08:55:33;30.50;99.90
15143;DHT22;7672;50.834;6.286;2022-10-16T08:58:16;30.80;99.90
15143;DHT22;7672;50.834;6.286;2022-10-16T09:00:54;31.00;99.90
15143;DHT22;7672;50.834;6.286;2022-10-16T09:06:13;31.40;99.90
15143;DHT22;7672;50.834;6.286;2022-10-16T09:09:04;31.60;99.90
15143;DHT22;7672;50.834;6.286;2022-10-16T09:11:53;31.80;99.90
15143;DHT22;7672;50.834;6.286;2022-10-16T09:14:39;32.10;99.90
15143;DHT22;7672;50.834;6.286;2022-10-16T09:20:20;32.40;99.90
15143;DHT22;7672;50.834;6.286;2022-10-16T09:25:32;32.70;99.90
15143;DHT22;7672;50.834;6.286;2022-10-16T09:28:01;32.80;99.90
15143;DHT22;7672;50.834;6.286;2022-10-16T09:30:29;33.00;99.90
15143;DHT22;7672;50.834;6.286;2022-10-16T09:32:58;33.20;99.80
15143;DHT22;7672;50.834;6.286;2022-10-16T09:35:36;33.30;99.20
15143;DHT22;7672;50.834;6.286;2022-10-16T09:38:06;33.60;98.70
15143;DHT22;7672;50.834;6.286;2022-10-16T09:40:37;33.80;97.70
15143;DHT22;7672;50.834;6.286;2022-10-16T09:46:03;34.10;96.50
15143;DHT22;7672;50.834;6.286;2022-10-16T09:48:36;34.20;96.10
15143;DHT22;7672;50.834;6.286;2022-10-16T09:51:14;34.40;95.30
15143;DHT22;7672;50.834;6.286;2022-10-16T09:53:46;34.60;94.30
15143;DHT22;7672;50.834;6.286;2022-10-16T09:56:33;34.70;94.00
15143;DHT22;7672;50.834;6.286;2022-10-16T09:59:16;34.90;94.60
15143;DHT22;7672;50.834;6.286;2022-10-16T10:01:47;35.00;92.90
15143;DHT22;7672;50.834;6.286;2022-10-16T10:04:20;35.20;91.80
15143;DHT22;7672;50.834;6.286;2022-10-16T10:06:51;35.40;91.10
15143;DHT22;7672;50.834;6.286;2022-10-16T10:09:36;35.40;90.10
15143;DHT22;7672;50.834;6.286;2022-10-16T10:12:05;35.50;90.70
15143;DHT22;7672;50.834;6.286;2022-10-16T10:14:56;35.40;90.00
15143;DHT22;7672;50.834;6.286;2022-10-16T10:17:28;35.20;90.10
15143;DHT22;7672;50.834;6.286;2022-10-16T10:23:15;35.00;89.90
15143;DHT22;7672;50.834;6.286;2022-10-16T10:26:04;34.80;88.30
15143;DHT22;7672;50.834;6.286;2022-10-16T10:28:50;34.60;89.80
15143;DHT22;7672;50.834;6.286;2022-10-16T10:36:41;33.80;88.50
15143;DHT22;7672;50.834;6.286;2022-10-16T10:42:17;33.00;88.20
15143;DHT22;7672;50.834;6.286;2022-10-16T10:48:06;32.10;90.00
15143;DHT22;7672;50.834;6.286;2022-10-16T10:50:57;31.80;90.50
15143;DHT22;7672;50.834;6.286;2022-10-16T10:53:48;31.50;90.60
15143;DHT22;7672;50.834;6.286;2022-10-16T10:56:50;31.20;90.40
15143;DHT22;7672;50.834;6.286;2022-10-16T11:02:41;30.60;91.20
15143;DHT22;7672;50.834;6.286;2022-10-16T11:08:32;30.20;91.60
15143;DHT22;7672;50.834;6.286;2022-10-16T11:11:07;30.10;91.40
15143;DHT22;7672;50.834;6.286;2022-10-16T11:13:58;29.90;91.40
15143;DHT22;7672;50.834;6.286;2022-10-16T11:16:44;29.80;91.60
15143;DHT22;7672;50.834;6.286;2022-10-16T11:19:46;29.70;92.20
15143;DHT22;7672;50.834;6.286;2022-10-16T11:22:27;29.60;92.10
15143;DHT22;7672;50.834;6.286;2022-10-16T11:27:51;29.50;92.20
15143;DHT22;7672;50.834;6.286;2022-10-16T11:30:50;29.50;92.10
15143;DHT22;7672;50.834;6.286;2022-10-16T11:33:31;29.60;92.50
15143;DHT22;7672;50.834;6.286;2022-10-16T11:41:49;29.50;92.40
15143;DHT22;7672;50.834;6.286;2022-10-16T11:47:24;29.40;92.30
15143;DHT22;7672;50.834;6.286;2022-10-16T11:50:30;29.30;91.40
15143;DHT22;7672;50.834;6.286;2022-10-16T11:56:06;29.00;92.30
15143;DHT22;7672;50.834;6.286;2022-10-16T11:59:10;28.90;92.40
15143;DHT22;7672;50.834;6.286;2022-10-16T12:05:12;28.60;92.70
15143;DHT22;7672;50.834;6.286;2022-10-16T12:10:30;28.40;93.00
15143;DHT22;7672;50.834;6.286;2022-10-16T12:13:26;28.30;92.90
15143;DHT22;7672;50.834;6.286;2022-10-16T12:18:40;28.10;93.20
15143;DHT22;7672;50.834;6.286;2022-10-16T12:21:09;28.00;93.60
15143;DHT22;7672;50.834;6.286;2022-10-16T12:23:51;27.90;93.80
15143;DHT22;7672;50.834;6.286;2022-10-16T12:26:34;27.80;93.80
15143;DHT22;7672;50.834;6.286;2022-10-16T12:29:37;27.70;93.50
15143;DHT22;7672;50.834;6.286;2022-10-16T12:32:27;27.70;94.00
15143;DHT22;7672;50.834;6.286;2022-10-16T12:35:25;27.60;94.20
15143;DHT22;7672;50.834;6.286;2022-10-16T12:38:07;27.50;93.80
15143;DHT22;7672;50.834;6.286;2022-10-16T12:40:43;27.50;94.00
15143;DHT22;7672;50.834;6.286;2022-10-16T12:43:37;27.50;94.30
15143;DHT22;7672;50.834;6.286;2022-10-16T12:48:36;27.30;94.50
15143;DHT22;7672;50.834;6.286;2022-10-16T12:54:16;27.20;94.40
15143;DHT22;7672;50.834;6.286;2022-10-16T13:06:08;27.00;94.90
15143;DHT22;7672;50.834;6.286;2022-10-16T13:11:45;26.90;94.40
15143;DHT22;7672;50.834;6.286;2022-10-16T13:17:08;26.60;94.60
15143;DHT22;7672;50.834;6.286;2022-10-16T13:28:28;25.70;95.30
15143;DHT22;7672;50.834;6.286;2022-10-16T13:31:00;25.60;95.60
15143;DHT22;7672;50.834;6.286;2022-10-16T13:33:35;25.40;95.90
15143;DHT22;7672;50.834;6.286;2022-10-16T13:36:05;25.20;97.30
15143;DHT22;7672;50.834;6.286;2022-10-16T13:38:36;25.10;96.60
15143;DHT22;7672;50.834;6.286;2022-10-16T13:41:05;25.00;96.90
15143;DHT22;7672;50.834;6.286;2022-10-16T13:43:50;24.80;97.60
15143;DHT22;7672;50.834;6.286;2022-10-16T13:46:24;24.80;97.90
15143;DHT22;7672;50.834;6.286;2022-10-16T13:48:58;24.70;97.80
15143;DHT22;7672;50.834;6.286;2022-10-16T13:51:32;24.70;98.40
15143;DHT22;7672;50.834;6.286;2022-10-16T13:53:59;24.60;98.40
15143;DHT22;7672;50.834;6.286;2022-10-16T13:56:28;24.70;98.70
15143;DHT22;7672;50.834;6.286;2022-10-16T14:02:04;24.70;99.50
15143;DHT22;7672;50.834;6.286;2022-10-16T14:04:40;24.60;99.40
15143;DHT22;7672;50.834;6.286;2022-10-16T14:07:34;24.50;99.40
15143;DHT22;7672;50.834;6.286;2022-10-16T14:10:04;24.50;99.60
15143;DHT22;7672;50.834;6.286;2022-10-16T14:12:34;24.40;99.90
15143;DHT22;7672;50.834;6.286;2022-10-16T14:15:02;24.30;99.90
15143;DHT22;7672;50.834;6.286;2022-10-16T14:17:32;24.30;99.90
15143;DHT22;7672;50.834;6.286;2022-10-16T14:20:05;24.20;99.90
15143;DHT22;7672;50.834;6.286;2022-10-16T14:22:38;24.20;99.90
15143;DHT22;7672;50.834;6.286;2022-10-16T14:28:03;24.10;99.90
15143;DHT22;7672;50.834;6.286;2022-10-16T14:30:58;24.10;99.90
15143;DHT22;7672;50.834;6.286;2022-10-16T14:36:05;24.10;99.90
15143;DHT22;7672;50.834;6.286;2022-10-16T14:38:39;23.90;99.90
15143;DHT22;7672;50.834;6.286;2022-10-16T14:41:15;24.10;99.90
15143;DHT22;7672;50.834;6.286;2022-10-16T14:43:43;24.00;99.90
15143;DHT22;7672;50.834;6.286;2022-10-16T14:46:19;24.00;99.90
15143;DHT22;7672;50.834;6.286;2022-10-16T14:49:17;24.00;99.90
15143;DHT22;7672;50.834;6.286;2022-10-16T14:51:46;23.90;99.90
15143;DHT22;7672;50.834;6.286;2022-10-16T14:54:16;23.90;99.90
15143;DHT22;7672;50.834;6.286;2022-10-16T14:59:34;24.10;99.90
15143;DHT22;7672;50.834;6.286;2022-10-16T15:05:15;23.80;99.90
15143;DHT22;7672;50.834;6.286;2022-10-16T15:07:51;23.70;99.90
15143;DHT22;7672;50.834;6.286;2022-10-16T15:10:22;23.70;99.90
15143;DHT22;7672;50.834;6.286;2022-10-16T15:12:51;23.60;99.90
15143;DHT22;7672;50.834;6.286;2022-10-16T15:18:04;23.50;99.90
15143;DHT22;7672;50.834;6.286;2022-10-16T15:20:34;23.40;99.90
15143;DHT22;7672;50.834;6.286;2022-10-16T15:23:04;23.30;99.90
15143;DHT22;7672;50.834;6.286;2022-10-16T15:25:45;23.20;99.90
15143;DHT22;7672;50.834;6.286;2022-10-16T15:28:13;23.20;99.90
15143;DHT22;7672;50.834;6.286;2022-10-16T15:30:41;23.10;99.90
15143;DHT22;7672;50.834;6.286;2022-10-16T15:33:14;23.00;99.90
15143;DHT22;7672;50.834;6.286;2022-10-16T15:35:45;23.00;99.90
15143;DHT22;7672;50.834;6.286;2022-10-16T15:38:15;22.90;99.90
15143;DHT22;7672;50.834;6.286;2022-10-16T15:40:42;23.00;99.90
15143;DHT22;7672;50.834;6.286;2022-10-16T15:43:09;22.80;99.90
15143;DHT22;7672;50.834;6.286;2022-10-16T15:45:37;22.90;99.90
15143;DHT22;7672;50.834;6.286;2022-10-16T15:48:04;22.90;99.90
15143;DHT22;7672;50.834;6.286;2022-10-16T15:50:32;22.80;99.90
15143;DHT22;7672;50.834;6.286;2022-10-16T15:53:00;22.80;99.90
15143;DHT22;7672;50.834;6.286;2022-10-16T15:55:27;22.70;99.90
15143;DHT22;7672;50.834;6.286;2022-10-16T15:57:54;22.80;99.90
15143;DHT22;7672;50.834;6.286;2022-10-16T16:00:20;22.60;99.90
15143;DHT22;7672;50.834;6.286;2022-10-16T16:02:52;22.60;99.90
15143;DHT22;7672;50.834;6.286;2022-10-16T16:05:21;22.50;99.90
15143;DHT22;7672;50.834;6.286;2022-10-16T16:07:48;22.50;99.90
15143;DHT22;7672;50.834;6.286;2022-10-16T16:10:16;22.40;99.90
15143;DHT22;7672;50.834;6.286;2022-10-16T16:12:46;22.40;99.90
15143;DHT22;7672;50.834;6.286;2022-10-16T16:15:23;22.40;99.90
15143;DHT22;7672;50.834;6.286;2022-10-16T16:17:50;22.30;99.90
15143;DHT22;7672;50.834;6.286;2022-10-16T16:20:17;22.20;99.90
15143;DHT22;7672;50.834;6.286;2022-10-16T16:22:43;22.20;99.90
15143;DHT22;7672;50.834;6.286;2022-10-16T16:25:10;22.00;99.90
15143;DHT22;7672;50.834;6.286;2022-10-16T16:27:37;22.00;99.90
15143;DHT22;7672;50.834;6.286;2022-10-16T16:30:10;22.00;99.90
15143;DHT22;7672;50.834;6.286;2022-10-16T16:32:45;21.90;99.90
15143;DHT22;7672;50.834;6.286;2022-10-16T16:35:12;21.90;99.90
15143;DHT22;7672;50.834;6.286;2022-10-16T16:37:38;21.70;99.90
15143;DHT22;7672;50.834;6.286;2022-10-16T16:40:05;21.70;99.90
15143;DHT22;7672;50.834;6.286;2022-10-16T16:42:32;21.70;99.90
15143;DHT22;7672;50.834;6.286;2022-10-16T16:44:59;21.70;99.90
15143;DHT22;7672;50.834;6.286;2022-10-16T16:47:26;21.50;99.90
15143;DHT22;7672;50.834;6.286;2022-10-16T16:49:53;21.50;99.90
15143;DHT22;7672;50.834;6.286;2022-10-16T16:52:20;21.50;99.90
15143;DHT22;7672;50.834;6.286;2022-10-16T16:54:47;21.50;99.90
15143;DHT22;7672;50.834;6.286;2022-10-16T16:57:19;21.40;99.90
15143;DHT22;7672;50.834;6.286;2022-10-16T16:59:47;21.30;99.90
15143;DHT22;7672;50.834;6.286;2022-10-16T17:02:16;21.20;99.90
15143;DHT22;7672;50.834;6.286;2022-10-16T17:04:43;21.20;99.90
15143;DHT22;7672;50.834;6.286;2022-10-16T17:07:10;21.20;99.90
15143;DHT22;7672;50.834;6.286;2022-10-16T17:09:37;21.10;99.90
15143;DHT22;7672;50.834;6.286;2022-10-16T17:12:04;21.30;99.90
15143;DHT22;7672;50.834;6.286;2022-10-16T17:14:31;21.00;99.90
15143;DHT22;7672;50.834;6.286;2022-10-16T17:16:58;21.00;99.90
15143;DHT22;7672;50.834;6.286;2022-10-16T17:19:25;20.90;99.90
15143;DHT22;7672;50.834;6.286;2022-10-16T17:21:52;20.90;99.90
15143;DHT22;7672;50.834;6.286;2022-10-16T17:24:19;20.90;99.90
15143;DHT22;7672;50.834;6.286;2022-10-16T17:26:47;20.90;99.90
15143;DHT22;7672;50.834;6.286;2022-10-16T17:29:16;20.90;99.90
15143;DHT22;7672;50.834;6.286;2022-10-16T17:31:44;20.80;99.90
15143;DHT22;7672;50.834;6.286;2022-10-16T17:34:12;20.80;99.90
15143;DHT22;7672;50.834;6.286;2022-10-16T17:36:40;20.80;99.90
15143;DHT22;7672;50.834;6.286;2022-10-16T17:39:13;20.80;99.90
15143;DHT22;7672;50.834;6.286;2022-10-16T17:41:43;20.70;99.90
15143;DHT22;7672;50.834;6.286;2022-10-16T17:44:12;20.70;99.90
15143;DHT22;7672;50.834;6.286;2022-10-16T17:46:52;20.70;99.90
15143;DHT22;7672;50.834;6.286;2022-10-16T17:49:19;20.50;99.90
15143;DHT22;7672;50.834;6.286;2022-10-16T17:51:52;20.50;99.90
15143;DHT22;7672;50.834;6.286;2022-10-16T17:54:19;20.50;99.90
15143;DHT22;7672;50.834;6.286;2022-10-16T17:56:46;20.40;99.90
15143;DHT22;7672;50.834;6.286;2022-10-16T17:59:14;20.40;99.90
15143;DHT22;7672;50.834;6.286;2022-10-16T18:01:41;20.30;99.90
15143;DHT22;7672;50.834;6.286;2022-10-16T18:04:13;20.20;99.90
15143;DHT22;7672;50.834;6.286;2022-10-16T18:06:43;20.20;99.90
15143;DHT22;7672;50.834;6.286;2022-10-16T18:09:12;20.20;99.90
15143;DHT22;7672;50.834;6.286;2022-10-16T18:11:41;20.10;99.90
15143;DHT22;7672;50.834;6.286;2022-10-16T18:14:10;20.00;99.90
15143;DHT22;7672;50.834;6.286;2022-10-16T18:16:38;20.00;99.90
15143;DHT22;7672;50.834;6.286;2022-10-16T18:19:06;20.00;99.90
15143;DHT22;7672;50.834;6.286;2022-10-16T18:21:32;20.00;99.90
15143;DHT22;7672;50.834;6.286;2022-10-16T18:24:00;19.90;99.90